Time;durP1;ratioP1;P1;durP2;ratioP2;P2;SDS_P1;SDS_P2;PMS_P1;PMS_P2;Temp;Humidity;BMP_temperature;BMP_pressure;BME280_temperature;BME280_humidity;BME280_pressure;Samples;Min_cycle;Max_cycle;Signal;HPM_P1;HPM_P2
2023/06/01 00:00:56;;;;;;;8.60;5.10;;;;;;;10.14;65.55;100448.73;134087;1297;22996;-76
2023/06/01 00:03:57;;;;;;;8.80;5.10;;;;;;;10.12;65.64;100443.30;134116;1284;22445;-76
2023/06/01 00:06:59;;;;;;;10.90;5.10;;;;;;;10.06;66.00;100443.90;134096;1299;22399;-76
2023/06/01 00:10:00;;;;;;;10.40;5.30;;;;;;;9.97;66.40;100443.75;134115;1298;22401;-76
2023/06/01 00:13:01;;;;;;;7.50;5.20;;;;;;;9.90;66.63;100442.35;134119;1299;22140;-76
2023/06/01 00:16:01;;;;;;;12.90;6.00;;;;;;;9.82;66.61;100439.25;134104;1297;22351;-76
2023/06/01 00:19:03;;;;;;;6.70;4.50;;;;;;;9.72;66.96;100435.59;134137;1297;22456;-76
2023/06/01 00:22:03;;;;;;;9.00;5.00;;;;;;;9.66;66.62;100431.27;134144;1298;22427;-76
2023/06/01 00:25:08;;;;;;;;;;;;;;;9.60;66.96;100432.17;134139;1299;23126;-76
2023/06/01 00:28:08;;;;;;;8.70;5.30;;;;;;;9.57;67.17;100427.45;134073;1299;22379;-76
2023/06/01 00:31:09;;;;;;;8.00;5.00;;;;;;;9.53;67.26;100424.34;133943;1300;22343;-76
2023/06/01 00:34:09;;;;;;;8.80;5.10;;;;;;;9.51;67.41;100423.11;134146;1299;22398;-76
2023/06/01 00:37:10;;;;;;;7.90;4.70;;;;;;;9.49;67.38;100426.66;134087;1296;22403;-76
2023/06/01 00:40:11;;;;;;;6.10;4.60;;;;;;;9.48;67.23;100424.84;133983;1298;23124;-75
2023/06/01 00:43:12;;;;;;;9.60;4.10;;;;;;;9.45;67.40;100425.05;133917;1301;22351;-76
2023/06/01 00:46:14;;;;;;;6.80;4.30;;;;;;;9.35;67.41;100427.77;134084;1298;22457;-76
2023/06/01 00:49:15;;;;;;;5.30;4.10;;;;;;;9.28;67.56;100427.62;134147;1298;22382;-76
2023/06/01 00:52:16;;;;;;;6.80;4.40;;;;;;;9.27;67.87;100430.59;134171;1298;22551;-76
2023/06/01 00:55:16;;;;;;;7.10;3.90;;;;;;;9.26;67.98;100427.81;134123;1299;22432;-76
2023/06/01 00:58:17;;;;;;;10.20;4.50;;;;;;;9.24;67.97;100425.91;134090;1297;22341;-76
2023/06/01 01:01:22;;;;;;;10.10;5.10;;;;;;;9.22;68.18;100426.06;133939;1299;22473;-76
2023/06/01 01:04:26;;;;;;;11.20;4.80;;;;;;;9.19;68.25;100426.73;133984;1300;23291;-76
2023/06/01 01:07:39;;;;;;;12.20;5.00;;;;;;;9.17;68.32;100425.89;134138;1298;23564;-76
2023/06/01 01:10:50;;;;;;;7.20;5.10;;;;;;;9.16;68.53;100420.13;133841;1305;23175;-76
2023/06/01 01:14:23;;;;;;;6.40;4.60;;;;;;;9.16;68.27;100421.94;134109;1297;22421;-76
2023/06/01 01:17:38;;;;;;;10.10;4.90;;;;;;;9.11;68.37;100421.55;133954;1300;22398;-76
2023/06/01 01:20:42;;;;;;;13.70;6.20;;;;;;;9.05;68.47;100418.95;134005;1290;22522;-76
2023/06/01 01:24:11;;;;;;;6.90;5.00;;;;;;;9.04;68.71;100418.17;133972;1300;23268;-76
2023/06/01 01:27:29;;;;;;;7.50;4.90;;;;;;;9.02;68.73;100415.39;133989;1302;22377;-76
2023/06/01 01:30:31;;;;;;;8.80;5.10;;;;;;;8.97;69.02;100412.61;133965;1299;23293;-76
2023/06/01 01:33:33;;;;;;;5.50;4.60;;;;;;;8.93;68.90;100414.12;134008;1298;22924;-76
2023/06/01 01:36:35;;;;;;;6.70;5.10;;;;;;;8.90;68.83;100410.82;133809;1298;22370;-76
2023/06/01 01:39:36;;;;;;;7.80;4.50;;;;;;;8.86;68.99;100409.44;133748;1293;22399;-76
2023/06/01 01:42:37;;;;;;;12.60;5.20;;;;;;;8.87;69.23;100406.52;134168;1297;22161;-76
2023/06/01 01:45:39;;;;;;;6.90;5.40;;;;;;;8.89;69.09;100406.30;134180;1291;23148;-76
2023/06/01 01:48:51;;;;;;;8.80;5.30;;;;;;;8.89;69.22;100406.14;134062;1299;22342;-76
2023/06/01 01:52:18;;;;;;;9.30;5.80;;;;;;;8.87;69.52;100401.61;133819;1301;22464;-76
2023/06/01 01:55:23;;;;;;;11.00;5.90;;;;;;;8.75;69.79;100395.92;134147;1297;22270;-76
2023/06/01 01:58:26;;;;;;;8.40;5.20;;;;;;;8.63;70.01;100394.92;133804;1298;22421;-76
2023/06/01 02:01:27;;;;;;;12.00;6.10;;;;;;;8.57;70.27;100399.74;134007;1298;22274;-76
2023/06/01 02:04:28;;;;;;;6.20;4.60;;;;;;;8.50;70.53;100394.21;133983;1297;22416;-76
2023/06/01 02:07:30;;;;;;;11.00;5.00;;;;;;;8.47;70.10;100388.92;134132;1297;23230;-76
2023/06/01 02:10:31;;;;;;;8.70;5.30;;;;;;;8.45;70.32;100389.10;133973;1298;22414;-76
2023/06/01 02:13:31;;;;;;;7.50;4.50;;;;;;;8.40;70.55;100383.25;134122;1298;23671;-76
2023/06/01 02:16:32;;;;;;;8.80;5.30;;;;;;;8.32;70.53;100385.75;134027;1301;22402;-76
2023/06/01 02:19:33;;;;;;;9.80;6.00;;;;;;;8.25;70.69;100384.80;134034;1298;23096;-76
2023/06/01 02:22:34;;;;;;;7.30;5.10;;;;;;;8.24;71.00;100388.26;134006;1298;22416;-76
2023/06/01 02:25:35;;;;;;;11.20;6.10;;;;;;;8.24;71.05;100387.33;133994;1300;23497;-76
2023/06/01 02:28:48;;;;;;;11.40;5.20;;;;;;;8.20;71.06;100387.20;134034;1298;23242;-76
2023/06/01 02:31:50;;;;;;;8.20;5.60;;;;;;;8.15;71.29;100385.39;134015;1301;23034;-76
2023/06/01 02:34:51;;;;;;;6.40;5.20;;;;;;;8.12;71.11;100385.88;133929;1297;22437;-76
2023/06/01 02:37:51;;;;;;;8.90;5.50;;;;;;;8.10;71.07;100384.24;134137;1297;22432;-76
2023/06/01 02:40:52;;;;;;;11.40;6.10;;;;;;;8.06;71.54;100383.75;134107;1297;22362;-76
2023/06/01 02:43:53;;;;;;;9.40;6.40;;;;;;;8.05;71.83;100386.12;134028;1301;22785;-76
2023/06/01 02:46:55;;;;;;;9.90;5.10;;;;;;;8.02;71.62;100383.73;134105;1305;22826;-76
2023/06/01 02:49:55;;;;;;;6.80;4.70;;;;;;;8.04;71.23;100373.90;133992;1301;22348;-76
2023/06/01 02:52:56;;;;;;;8.30;5.50;;;;;;;8.03;71.39;100375.52;134122;1305;23081;-76
2023/06/01 02:55:56;;;;;;;10.90;5.30;;;;;;;8.02;71.24;100372.17;134120;1299;22345;-76
2023/06/01 02:59:15;;;;;;;7.00;5.20;;;;;;;7.99;71.54;100374.04;134025;1301;23282;-76
2023/06/01 03:02:21;;;;;;;8.30;5.50;;;;;;;7.98;71.60;100373.20;133999;1299;22511;-76
2023/06/01 03:05:23;;;;;;;7.40;5.80;;;;;;;8.00;72.07;100376.52;134000;1299;22426;-76
2023/06/01 03:08:45;;;;;;;7.90;5.80;;;;;;;8.01;72.04;100375.95;134114;1298;22401;-76
2023/06/01 03:11:52;;;;;;;6.10;5.10;;;;;;;8.03;72.07;100374.80;133987;1300;22494;-76
2023/06/01 03:14:52;;;;;;;11.00;5.70;;;;;;;8.08;72.03;100372.10;134099;1300;23208;-76
2023/06/01 03:17:53;;;;;;;11.20;7.00;;;;;;;8.08;72.20;100373.17;134167;1298;22373;-76
2023/06/01 03:20:54;;;;;;;;;;;;;;;8.09;72.57;100375.70;134077;1299;22456;-76
2023/06/01 03:23:55;;;;;;;9.80;6.10;;;;;;;8.12;72.65;100377.56;134010;1301;22371;-76
2023/06/01 03:26:56;;;;;;;12.40;5.80;;;;;;;8.12;72.64;100377.76;134125;1298;22608;-76
2023/06/01 03:29:57;;;;;;;11.20;6.40;;;;;;;8.09;72.66;100372.92;133987;1301;22353;-76
2023/06/01 03:32:57;;;;;;;9.00;6.40;;;;;;;8.11;72.72;100372.89;134049;1298;22410;-76
2023/06/01 03:35:58;;;;;;;8.80;6.30;;;;;;;8.18;72.85;100370.80;133985;1304;22431;-76
2023/06/01 03:38:58;;;;;;;9.90;6.50;;;;;;;8.31;73.03;100373.75;134118;1298;22503;-76
2023/06/01 03:42:00;;;;;;;9.30;5.80;;;;;;;8.46;73.19;100369.08;133841;1291;22379;-76
2023/06/01 03:45:01;;;;;;;;;;;;;;;8.67;73.13;100368.96;134028;1298;22438;-76
2023/06/01 03:48:02;;;;;;;9.20;6.20;;;;;;;8.89;73.10;100368.42;133976;1300;22456;-76
2023/06/01 03:51:03;;;;;;;;;;;;;;;9.13;73.30;100367.47;133977;1300;22445;-76
2023/06/01 03:54:07;;;;;;;11.20;6.20;;;;;;;9.36;73.25;100364.73;134138;1298;22290;-76
2023/06/01 03:57:08;;;;;;;11.50;6.10;;;;;;;9.52;73.04;100360.83;134069;1301;22144;-76
2023/06/01 04:00:18;;;;;;;8.40;5.80;;;;;;;9.65;72.88;100357.92;134079;1299;22523;-76
2023/06/01 04:03:25;;;;;;;9.60;6.30;;;;;;;9.78;72.95;100358.15;134126;1297;22421;-76
2023/06/01 04:06:29;;;;;;;8.00;5.40;;;;;;;9.89;72.96;100356.52;134039;1300;22444;-76
2023/06/01 04:09:30;;;;;;;8.50;6.00;;;;;;;9.98;72.86;100354.17;134102;1298;22319;-76
2023/06/01 04:12:30;;;;;;;;;;;;;;;10.10;72.77;100355.98;134020;1298;22438;-74
2023/06/01 04:15:32;;;;;;;9.40;5.50;;;;;;;10.23;72.89;100350.55;134145;1298;22605;-76
2023/06/01 04:18:33;;;;;;;9.00;5.90;;;;;;;10.41;72.83;100349.79;133998;1300;22352;-77
2023/06/01 04:21:36;;;;;;;10.10;6.50;;;;;;;10.62;72.79;100342.64;133694;1297;23553;-75
2023/06/01 04:24:37;;;;;;;10.20;6.80;;;;;;;10.77;72.61;100343.34;134037;1300;22339;-74
2023/06/01 04:27:45;;;;;;;11.80;6.30;;;;;;;10.95;72.51;100341.77;133949;1298;22405;-75
2023/06/01 04:30:47;;;;;;;12.80;7.80;;;;;;;11.25;72.42;100340.30;133979;1301;22177;-75
2023/06/01 04:33:56;;;;;;;9.70;6.80;;;;;;;11.73;72.61;100337.03;133892;1294;23355;-76
2023/06/01 04:36:59;;;;;;;11.60;7.90;;;;;;;12.24;72.23;100332.65;133909;1304;22358;-80
2023/06/01 04:40:01;;;;;;;12.10;7.20;;;;;;;12.74;71.75;100322.96;134053;1305;22340;-74
2023/06/01 04:43:02;;;;;;;14.10;6.90;;;;;;;13.26;71.45;100318.22;133776;1297;23067;-75
2023/06/01 04:46:05;;;;;;;11.30;7.70;;;;;;;13.87;71.15;100316.34;133826;1297;23242;-75
2023/06/01 04:49:06;;;;;;;9.30;6.20;;;;;;;14.50;70.56;100319.61;133920;1300;22610;-76
2023/06/01 04:52:09;;;;;;;30.30;7.20;;;;;;;15.11;69.75;100320.85;133871;1301;22357;-78
2023/06/01 04:55:13;;;;;;;15.00;7.70;;;;;;;15.60;68.68;100314.33;133917;1299;23269;-76
2023/06/01 04:58:14;;;;;;;12.30;7.10;;;;;;;16.03;67.74;100315.06;134014;1298;23544;-77
2023/06/01 05:01:15;;;;;;;;;;;;;;;16.40;67.12;100313.05;133913;1300;22455;-77
2023/06/01 05:04:17;;;;;;;11.10;7.50;;;;;;;16.76;66.33;100305.57;133754;1300;22355;-76
2023/06/01 05:07:17;;;;;;;;;;;;;;;17.14;65.44;100304.11;133891;1301;23248;-77
2023/06/01 05:10:18;;;;;;;14.70;6.60;;;;;;;17.45;64.66;100302.27;133871;1301;22418;-76
2023/06/01 05:13:20;;;;;;;8.70;6.30;;;;;;;17.72;63.89;100304.31;133875;1300;22400;-77
2023/06/01 05:16:21;;;;;;;11.90;6.00;;;;;;;17.93;63.02;100304.86;133820;1300;22416;-78
2023/06/01 05:19:23;;;;;;;25.40;6.90;;;;;;;18.05;62.45;100297.89;133876;1294;22393;-76
2023/06/01 05:22:25;;;;;;;10.30;5.70;;;;;;;18.29;61.74;100294.00;133865;1299;23087;-76
2023/06/01 05:25:26;;;;;;;12.60;6.40;;;;;;;18.63;61.31;100295.55;133936;1301;22483;-76
2023/06/01 05:28:31;;;;;;;10.40;5.80;;;;;;;18.94;60.42;100292.12;133923;1300;22356;-75
2023/06/01 05:31:32;;;;;;;9.20;6.50;;;;;;;19.12;59.82;100289.38;133920;1300;22345;-76
2023/06/01 05:34:32;;;;;;;12.20;5.80;;;;;;;19.40;59.13;100288.11;133981;1298;22617;-76
2023/06/01 05:37:34;;;;;;;9.70;5.30;;;;;;;19.61;58.30;100288.14;133916;1301;22188;-76
2023/06/01 05:40:36;;;;;;;11.50;6.80;;;;;;;19.97;58.09;100291.09;133931;1301;22341;-75
2023/06/01 05:43:37;;;;;;;11.20;6.00;;;;;;;20.44;57.57;100286.55;133918;1300;23020;-76
2023/06/01 05:46:38;;;;;;;11.10;5.70;;;;;;;20.98;56.41;100284.29;133751;1299;22485;-74
2023/06/01 05:49:39;;;;;;;11.00;6.20;;;;;;;21.32;55.32;100282.50;134025;1292;23148;-81
2023/06/01 05:52:42;;;;;;;8.80;5.20;;;;;;;21.63;54.68;100282.72;133991;1298;22210;-74
2023/06/01 05:55:43;;;;;;;16.80;5.70;;;;;;;21.80;53.75;100282.95;134030;1298;22352;-74
2023/06/01 05:58:44;;;;;;;7.70;5.20;;;;;;;22.11;53.28;100279.88;133961;1300;22399;-75
2023/06/01 06:01:44;;;;;;;12.90;5.70;;;;;;;22.26;51.99;100279.07;133948;1300;22382;-74
2023/06/01 06:04:45;;;;;;;29.30;6.90;;;;;;;22.43;51.87;100275.89;134046;1299;22409;-75
2023/06/01 06:07:46;;;;;;;13.00;5.30;;;;;;;22.82;51.43;100271.58;134048;1304;22573;-75
2023/06/01 06:10:47;;;;;;;11.80;4.80;;;;;;;23.29;50.71;100273.83;134147;1298;23259;-80
2023/06/01 06:13:50;;;;;;;9.20;5.00;;;;;;;23.71;49.96;100270.09;134008;1299;23112;-76
2023/06/01 06:16:50;;;;;;;10.70;4.90;;;;;;;23.99;49.11;100273.77;134063;1298;22336;-74
2023/06/01 06:19:54;;;;;;;14.60;5.40;;;;;;;24.05;48.68;100272.29;133980;1298;23160;-75
2023/06/01 06:22:55;;;;;;;11.00;5.20;;;;;;;24.27;48.09;100268.69;134064;1298;22405;-75
2023/06/01 06:25:56;;;;;;;12.00;5.60;;;;;;;24.45;47.28;100263.44;133888;1301;22354;-75
2023/06/01 06:28:56;;;;;;;14.40;4.90;;;;;;;24.51;46.54;100259.88;134094;1303;22427;-75
2023/06/01 06:31:57;;;;;;;11.20;4.90;;;;;;;24.68;46.21;100260.80;134078;1298;22374;-75
2023/06/01 06:34:58;;;;;;;10.70;4.60;;;;;;;24.91;45.50;100260.32;134071;1298;22148;-74
2023/06/01 06:37:59;;;;;;;11.90;5.00;;;;;;;24.94;45.33;100259.47;134094;1298;22350;-75
2023/06/01 06:40:59;;;;;;;9.70;5.00;;;;;;;25.12;44.66;100258.38;134064;1298;22412;-75
2023/06/01 06:44:00;;;;;;;13.00;4.70;;;;;;;25.07;44.19;100259.41;133860;1298;22494;-77
2023/06/01 06:47:01;;;;;;;12.90;5.00;;;;;;;25.12;44.13;100263.81;133960;1300;22481;-77
2023/06/01 06:50:02;;;;;;;9.50;4.40;;;;;;;25.47;43.95;100259.23;134188;1298;22278;-75
2023/06/01 06:53:03;;;;;;;12.20;5.20;;;;;;;25.79;43.36;100254.23;133990;1305;23011;-75
2023/06/01 06:56:04;;;;;;;9.10;4.70;;;;;;;25.92;42.90;100254.30;134154;1300;22797;-75
2023/06/01 06:59:05;;;;;;;10.00;4.20;;;;;;;26.03;42.37;100247.83;134157;1301;22403;-76
2023/06/01 07:02:06;;;;;;;9.10;4.30;;;;;;;26.13;42.21;100242.15;134131;1298;22389;-75
2023/06/01 07:05:08;;;;;;;8.40;4.00;;;;;;;26.25;42.00;100243.70;134124;1301;22387;-75
2023/06/01 07:08:08;;;;;;;11.90;4.30;;;;;;;26.53;41.90;100241.71;134109;1297;22428;-79
2023/06/01 07:11:10;;;;;;;7.20;3.80;;;;;;;26.76;41.12;100236.75;134130;1298;22361;-75
2023/06/01 07:14:11;;;;;;;12.50;4.60;;;;;;;26.85;40.73;100233.27;134144;1298;22415;-74
2023/06/01 07:17:12;;;;;;;8.40;4.00;;;;;;;26.96;40.34;100230.44;133994;1299;22390;-75
2023/06/01 07:20:13;;;;;;;15.70;4.50;;;;;;;26.99;40.16;100224.72;133998;1299;22372;-74
2023/06/01 07:23:16;;;;;;;6.80;3.50;;;;;;;27.17;40.00;100222.48;134161;1298;22422;-74
2023/06/01 07:26:20;;;;;;;13.60;4.30;;;;;;;27.36;39.34;100223.11;133926;1301;22202;-75
2023/06/01 07:29:22;;;;;;;13.80;4.00;;;;;;;27.52;39.10;100221.66;134153;1298;22405;-74
2023/06/01 07:32:24;;;;;;;7.50;3.10;;;;;;;27.61;38.49;100223.32;134125;1300;22431;-75
2023/06/01 07:35:25;;;;;;;10.60;3.40;;;;;;;27.71;38.03;100223.40;134161;1298;22379;-74
2023/06/01 07:38:30;;;;;;;7.50;3.00;;;;;;;27.81;37.19;100222.08;134160;1297;22204;-74
2023/06/01 07:41:30;;;;;;;10.50;3.40;;;;;;;27.77;36.81;100219.40;134143;1298;22471;-75
2023/06/01 07:44:31;;;;;;;9.20;3.10;;;;;;;27.78;36.59;100215.91;133985;1298;22470;-75
2023/06/01 07:47:32;;;;;;;26.80;4.40;;;;;;;27.91;36.48;100218.23;134117;1299;22123;-74
2023/06/01 07:50:33;;;;;;;11.30;3.30;;;;;;;28.00;35.97;100213.13;134127;1301;22437;-74
2023/06/01 07:53:35;;;;;;;7.50;2.70;;;;;;;27.87;35.31;100216.17;134111;1294;22416;-75
2023/06/01 07:56:36;;;;;;;7.50;3.00;;;;;;;27.75;35.21;100213.30;134021;1298;23198;-75
2023/06/01 07:59:37;;;;;;;6.30;2.90;;;;;;;27.76;34.28;100207.31;134088;1299;22164;-74
2023/06/01 08:02:39;;;;;;;5.50;2.80;;;;;;;27.74;34.28;100209.88;133886;1297;300963;-74
2023/06/01 08:05:42;;;;;;;6.90;2.60;;;;;;;27.84;34.03;100206.42;134083;1297;22443;-74
2023/06/01 08:08:46;;;;;;;54.70;4.30;;;;;;;27.96;33.79;100207.41;134012;1301;23129;-74
2023/06/01 08:11:48;;;;;;;5.90;2.20;;;;;;;28.10;33.30;100203.64;134107;1297;22423;-74
2023/06/01 08:14:51;;;;;;;6.90;2.80;;;;;;;28.03;32.89;100202.40;133998;1299;24349;-74
2023/06/01 08:17:56;;;;;;;4.50;2.30;;;;;;;28.10;32.98;100204.13;133953;1298;22590;-74
2023/06/01 08:21:04;;;;;;;7.60;2.40;;;;;;;28.15;32.44;100205.62;134006;1301;22468;-75
2023/06/01 08:24:04;;;;;;;9.80;2.60;;;;;;;28.05;31.66;100205.13;134111;1298;22216;-76
2023/06/01 08:27:23;;;;;;;5.70;2.40;;;;;;;28.13;31.61;100202.80;134125;1297;22456;-75
2023/06/01 08:30:27;;;;;;;3.20;2.10;;;;;;;28.21;31.88;100200.29;134025;1300;22360;-74
2023/06/01 08:33:28;;;;;;;3.30;2.50;;;;;;;28.15;30.59;100200.98;133932;1300;22537;-74
2023/06/01 08:36:29;;;;;;;9.30;2.70;;;;;;;27.96;30.02;100200.33;134100;1299;22476;-75
2023/06/01 08:39:30;;;;;;;4.20;2.50;;;;;;;27.79;29.83;100197.50;134086;1298;22496;-79
2023/06/01 08:42:44;;;;;;;4.70;2.90;;;;;;;27.66;29.71;100192.17;133976;1301;22419;-75
2023/06/01 08:45:47;;;;;;;5.70;2.70;;;;;;;27.77;30.02;100190.13;133972;1298;22463;-74
2023/06/01 08:48:54;;;;;;;3.20;2.30;;;;;;;27.95;29.63;100183.96;134022;1300;22360;-74
2023/06/01 08:51:56;;;;;;;5.30;2.30;;;;;;;28.01;29.41;100178.83;134007;1298;23264;-75
2023/06/01 08:54:59;;;;;;;5.20;2.40;;;;;;;28.08;29.15;100173.70;133958;1300;23040;-74
2023/06/01 08:58:00;;;;;;;3.80;2.30;;;;;;;28.17;29.21;100170.70;134086;1302;23891;-74
2023/06/01 09:01:00;;;;;;;6.40;2.70;;;;;;;28.22;28.84;100167.17;134118;1299;22198;-74
2023/06/01 09:04:04;;;;;;;3.50;2.50;;;;;;;28.10;28.89;100162.34;133941;1301;22497;-73
2023/06/01 09:07:05;;;;;;;4.80;2.90;;;;;;;28.01;28.60;100156.77;134028;1299;22341;-78
2023/06/01 09:10:11;;;;;;;8.40;3.10;;;;;;;27.90;29.03;100159.29;134126;1298;23024;-74
2023/06/01 09:13:11;;;;;;;8.20;2.80;;;;;;;27.81;28.91;100154.74;133969;1304;22430;-75
2023/06/01 09:16:12;;;;;;;8.80;2.90;;;;;;;27.75;28.76;100156.72;134113;1299;22396;-75
2023/06/01 09:19:13;;;;;;;4.00;2.90;;;;;;;27.84;28.59;100158.23;134119;1298;22460;-75
2023/06/01 09:22:14;;;;;;;9.20;2.70;;;;;;;27.88;28.63;100153.79;134140;1298;22367;-75
2023/06/01 09:25:15;;;;;;;7.50;2.10;;;;;;;28.04;28.91;100150.00;134098;1298;22234;-75
2023/06/01 09:28:16;;;;;;;5.10;2.10;;;;;;;28.19;28.72;100144.44;134110;1304;22410;-75
2023/06/01 09:31:47;;;;;;;3.60;1.90;;;;;;;28.36;28.76;100140.67;134200;1298;22348;-74
2023/06/01 09:34:47;;;;;;;3.50;1.70;;;;;;;28.28;28.20;100134.99;134075;1298;22366;-75
2023/06/01 09:37:56;;;;;;;6.40;1.90;;;;;;;28.07;27.93;100135.40;134133;1297;22218;-75
2023/06/01 09:41:02;;;;;;;4.50;2.30;;;;;;;27.96;28.38;100139.14;133955;1301;23236;-75
2023/06/01 09:44:03;;;;;;;4.70;2.20;;;;;;;28.17;28.50;100132.63;134090;1298;23230;-75
2023/06/01 09:47:09;;;;;;;3.10;2.00;;;;;;;28.26;28.52;100131.30;134077;1305;22487;-75
2023/06/01 09:50:11;;;;;;;4.90;2.10;;;;;;;28.28;28.65;100128.61;133939;1299;22467;-76
2023/06/01 09:53:11;;;;;;;2.40;1.80;;;;;;;28.19;28.22;100128.19;134064;1304;22434;-78
2023/06/01 09:56:12;;;;;;;4.50;1.80;;;;;;;28.15;28.84;100125.38;134098;1299;22334;-75
2023/06/01 09:59:14;;;;;;;4.80;2.00;;;;;;;28.27;28.79;100119.02;133899;1298;22210;-76
2023/06/01 10:02:20;;;;;;;3.50;1.60;;;;;;;28.41;29.07;100118.16;133957;1298;22460;-82
2023/06/01 10:05:21;;;;;;;2.70;2.10;;;;;;;28.63;28.65;100116.08;134099;1298;22384;-76
2023/06/01 10:08:22;;;;;;;3.20;1.80;;;;;;;28.56;28.02;100114.55;134116;1298;22774;-76
2023/06/01 10:11:30;;;;;;;2.70;1.50;;;;;;;28.34;28.14;100110.62;134002;1304;25134;-75
2023/06/01 10:14:32;;;;;;;3.80;2.00;;;;;;;28.40;28.34;100109.16;134166;1302;22535;-76
2023/06/01 10:17:34;;;;;;;2.80;1.90;;;;;;;28.51;28.34;100106.48;134127;1298;23076;-75
2023/06/01 10:20:36;;;;;;;5.70;2.50;;;;;;;28.68;28.43;100101.30;134106;1303;22218;-75
2023/06/01 10:23:37;;;;;;;2.90;1.60;;;;;;;28.74;28.26;100100.20;134084;1302;22350;-77
2023/06/01 10:27:05;;;;;;;4.70;2.20;;;;;;;28.79;28.20;100097.36;134106;1301;22247;-76
2023/06/01 10:30:09;;;;;;;3.30;1.70;;;;;;;28.84;28.14;100089.77;133970;1298;22387;-81
2023/06/01 10:33:10;;;;;;;3.00;1.90;;;;;;;28.83;27.64;100089.13;133994;1299;22363;-75
2023/06/01 10:36:11;;;;;;;5.80;2.20;;;;;;;28.75;27.92;100093.74;134178;1298;22212;-75
2023/06/01 10:39:28;;;;;;;4.30;2.00;;;;;;;28.74;27.87;100086.81;134126;1298;22378;-77
2023/06/01 10:42:39;;;;;;;3.40;2.00;;;;;;;28.71;27.99;100092.20;134133;1298;22353;-77
2023/06/01 10:45:40;;;;;;;4.80;2.10;;;;;;;28.63;28.07;100091.29;133931;1301;22349;-77
2023/06/01 10:48:52;;;;;;;3.80;1.60;;;;;;;28.66;28.22;100092.04;134107;1298;22450;-75
2023/06/01 10:52:29;;;;;;;8.10;2.10;;;;;;;28.61;28.20;100088.42;134145;1298;23105;-81
2023/06/01 10:55:31;;;;;;;2.80;1.90;;;;;;;28.53;28.34;100086.98;134110;1301;24578;-82
2023/06/01 10:58:32;;;;;;;4.90;1.90;;;;;;;28.47;28.51;100077.37;134094;1304;22316;-76
2023/06/01 11:01:40;;;;;;;3.40;1.90;;;;;;;28.50;28.63;100075.09;134154;1302;22465;-76
2023/06/01 11:04:44;;;;;;;2.60;1.80;;;;;;;28.62;28.47;100064.50;134105;1302;23081;-76
2023/06/01 11:07:45;;;;;;;4.70;2.20;;;;;;;28.61;28.51;100067.95;134109;1300;22913;-76
2023/06/01 11:11:02;;;;;;;4.30;2.00;;;;;;;28.65;28.59;100062.88;134113;1298;22389;-75
2023/06/01 11:14:11;;;;;;;2.80;1.70;;;;;;;28.63;28.38;100058.39;134113;1299;22224;-75
2023/06/01 11:17:30;;;;;;;7.40;2.00;;;;;;;28.62;28.51;100058.66;134115;1299;22362;-75
2023/06/01 11:20:39;;;;;;;3.30;2.00;;;;;;;28.50;28.42;100057.40;134163;1298;23137;-76
2023/06/01 11:23:43;;;;;;;3.70;2.20;;;;;;;28.49;28.43;100058.29;134138;1298;23560;-75
2023/06/01 11:26:46;;;;;;;2.60;1.70;;;;;;;28.51;28.38;100053.48;134126;1297;22391;-76
2023/06/01 11:29:50;;;;;;;3.80;1.80;;;;;;;28.55;28.22;100052.02;134131;1299;22371;-76
2023/06/01 11:32:53;;;;;;;7.20;2.00;;;;;;;28.58;28.34;100048.65;133966;1302;22497;-75
2023/06/01 11:36:04;;;;;;;3.30;2.30;;;;;;;28.69;28.03;100048.81;134078;1298;22420;-76
2023/06/01 11:39:08;;;;;;;5.50;1.90;;;;;;;28.66;27.62;100038.31;134103;1305;22237;-77
2023/06/01 11:42:10;;;;;;;6.00;2.10;;;;;;;28.62;27.92;100037.37;134033;1298;22395;-75
2023/06/01 11:45:27;;;;;;;6.50;2.00;;;;;;;28.58;27.79;100039.59;134105;1299;22249;-75
2023/06/01 11:48:28;;;;;;;2.60;2.00;;;;;;;28.53;27.87;100030.15;134078;1298;22415;-76
2023/06/01 11:51:31;;;;;;;3.70;1.80;;;;;;;28.55;28.02;100029.41;133987;1299;22276;-76
2023/06/01 11:54:36;;;;;;;2.80;2.30;;;;;;;28.48;27.96;100024.19;134096;1298;22227;-77
2023/06/01 11:57:43;;;;;;;5.30;1.80;;;;;;;28.34;28.24;100018.02;134076;1298;22389;-75
2023/06/01 12:00:44;;;;;;;4.70;2.00;;;;;;;28.32;28.23;100016.56;134072;1299;22925;-76
2023/06/01 12:04:09;;;;;;;3.00;1.90;;;;;;;28.34;28.16;100009.94;133919;1301;23322;-76
2023/06/01 12:07:10;;;;;;;35.30;3.00;;;;;;;28.35;28.06;100007.76;134082;1298;22490;-77
2023/06/01 12:10:14;;;;;;;5.80;2.40;;;;;;;28.28;27.96;100007.33;134098;1297;22188;-76
2023/06/01 12:13:18;;;;;;;5.60;2.60;;;;;;;28.31;28.13;100005.11;133925;1301;22465;-77
2023/06/01 12:16:19;;;;;;;4.90;2.10;;;;;;;28.42;28.09;100003.73;134090;1297;22495;-77
2023/06/01 12:19:21;;;;;;;4.40;2.40;;;;;;;28.43;28.12;100000.98;134065;1297;23219;-76
2023/06/01 12:22:32;;;;;;;4.60;2.00;;;;;;;28.52;28.27;99999.36;134059;1302;22408;-75
2023/06/01 12:25:33;;;;;;;17.70;3.20;;;;;;;28.59;28.36;99995.14;133953;1294;22578;-76
2023/06/01 12:28:54;;;;;;;4.10;2.10;;;;;;;28.56;28.21;99992.07;134027;1298;23934;-79
2023/06/01 12:31:55;;;;;;;4.20;2.20;;;;;;;28.54;28.60;99985.27;134066;1298;22502;-75
2023/06/01 12:35:05;;;;;;;6.80;2.50;;;;;;;28.39;28.28;99988.68;134063;1298;23001;-75
2023/06/01 12:38:10;;;;;;;31.30;3.80;;;;;;;28.22;28.01;99987.14;134078;1298;22369;-76
2023/06/01 12:41:12;;;;;;;6.30;2.10;;;;;;;28.21;28.39;99980.34;134088;1297;22364;-76
2023/06/01 12:44:22;;;;;;;4.80;2.30;;;;;;;28.26;28.55;99974.83;134061;1298;22457;-77
2023/06/01 12:47:23;;;;;;;;;;;;;;;28.30;28.36;99968.95;134097;1298;22459;-76
2023/06/01 12:50:24;;;;;;;4.60;2.50;;;;;;;28.24;28.47;99968.36;134069;1298;22441;-75
2023/06/01 12:53:25;;;;;;;7.90;2.30;;;;;;;28.28;28.89;99961.34;133995;1298;22377;-76
2023/06/01 12:56:26;;;;;;;4.90;2.60;;;;;;;28.27;28.76;99958.41;134126;1298;22353;-76
2023/06/01 12:59:27;;;;;;;6.50;2.50;;;;;;;28.13;29.09;99962.29;134104;1298;22845;-80
2023/06/01 13:02:28;;;;;;;4.00;2.80;;;;;;;28.13;29.27;99964.63;134086;1298;23209;-75
2023/06/01 13:05:29;;;;;;;6.60;2.50;;;;;;;28.10;29.50;99958.77;134071;1297;23153;-75
2023/06/01 13:08:29;;;;;;;3.90;2.60;;;;;;;28.12;30.16;99957.29;134117;1298;22423;-77
2023/06/01 13:11:30;;;;;;;5.80;3.10;;;;;;;28.09;29.93;99955.68;134068;1301;23199;-76
2023/06/01 13:14:31;;;;;;;3.30;2.60;;;;;;;28.00;29.88;99951.29;134106;1298;22441;-75
2023/06/01 13:17:37;;;;;;;5.80;2.70;;;;;;;27.87;30.18;99953.31;134089;1298;23356;-75
2023/06/01 13:20:41;;;;;;;3.70;2.20;;;;;;;27.91;30.14;99944.99;134058;1302;22482;-75
2023/06/01 13:23:42;;;;;;;5.70;3.10;;;;;;;27.95;30.04;99943.59;134124;1301;22500;-76
2023/06/01 13:26:43;;;;;;;6.50;2.90;;;;;;;27.93;30.07;99939.95;134067;1299;22541;-75
2023/06/01 13:29:44;;;;;;;4.50;2.90;;;;;;;27.81;30.21;99938.23;134098;1297;23141;-75
2023/06/01 13:32:45;;;;;;;7.10;2.90;;;;;;;27.76;30.50;99939.08;134101;1298;22471;-75
2023/06/01 13:35:47;;;;;;;7.40;2.60;;;;;;;27.79;30.53;99935.31;134106;1298;22377;-76
2023/06/01 13:38:48;;;;;;;5.80;3.40;;;;;;;27.82;30.79;99928.01;134085;1301;22362;-76
2023/06/01 13:41:49;;;;;;;4.40;2.70;;;;;;;27.76;30.92;99927.92;134064;1297;22519;-75
2023/06/01 13:44:50;;;;;;;4.50;2.30;;;;;;;27.72;31.05;99923.42;134157;1298;23145;-75
2023/06/01 13:47:51;;;;;;;3.50;2.50;;;;;;;27.76;31.07;99918.70;134180;1298;22199;-75
2023/06/01 13:50:52;;;;;;;6.20;2.40;;;;;;;27.77;30.85;99922.67;134117;1299;22367;-78
2023/06/01 13:53:52;;;;;;;7.40;2.70;;;;;;;27.80;30.91;99922.23;134087;1298;22445;-77
2023/06/01 13:56:53;;;;;;;4.80;2.60;;;;;;;27.81;30.59;99921.41;134143;1297;22448;-76
2023/06/01 13:59:54;;;;;;;15.80;3.40;;;;;;;27.79;30.59;99917.86;134083;1298;22439;-75
2023/06/01 14:02:55;;;;;;;4.00;2.40;;;;;;;27.73;30.68;99916.00;134108;1297;22394;-76
2023/06/01 14:05:55;;;;;;;6.60;2.60;;;;;;;27.68;30.84;99909.88;134102;1299;22480;-77